New Creation — 3EGO6 — position and weather

sailwx.info

Track history (hours):
 
Tides and Currents Weather Stations Pressure Air Temp Water Temp Dewpoint Dewpoint Depression Visibility Wind Speed Wind Dir Waves Ship Positions

New Creation

Last reported at 2014-Nov-08 15:22 UTC. Time now 2014-Nov-23 12:26 UTC.
Position N 49°02' W 126°47'.
Warning: this ship's position is 14 days out of date.

Length 176 m; draft 10.1 m.

Type: Cargo ship. MMSI: 353507000.

Date/timePositionNaut miles runAvg speedWind from/ knotsBaromVisibWave heightAir tempDewpointWater temp
2014-Nov-08 15:22N 49°02' W 126°47'1112.8
2014-Nov-08 14:30N 48°57' W 126°32'1213.1
2014-Nov-08 13:34N 48°53' W 126°15'1313.2
2014-Nov-08 12:34N 48°47' W 125°57'1312.9
2014-Nov-08 11:34N 48°41' W 125°39'1313.0
2014-Nov-08 10:33N 48°36' W 125°21'1312.9
2014-Nov-08 09:33N 48°31' W 125°03'4012.8
2014-Nov-08 06:28N 48°20' W 124°05'1314.1
2014-Nov-08 05:33N 48°17' W 123°47'1413.6
2014-Nov-08 04:33N 48°20' W 123°27'1212.0
2014-Nov-08 03:33N 48°26' W 123°12'1615.5
2014-Nov-08 02:34N 48°42' W 123°15'1212.0
2014-Nov-08 01:33N 48°50' W 123°02'1313.3
2014-Nov-08 00:33N 48°59' W 123°17'1212.0
2014-Nov-07 23:33N 49°11' W 123°22'1111.1
2014-Nov-07 22:34N 49°19' W 123°10'2 1.7
2014-Nov-07 21:31N 49°19' W 123°08'0 0.0
2014-Nov-07 20:31N 49°19' W 123°08'0 0.0
2014-Nov-07 19:31N 49°19' W 123°08'0 0.0
2014-Nov-07 18:31N 49°19' W 123°08'0 0.0
2014-Nov-07 17:31N 49°19' W 123°08'0 0.0
2014-Nov-07 16:31N 49°19' W 123°08'0 0.0
2014-Nov-07 15:31N 49°19' W 123°08'0 0.0
2014-Nov-07 14:31N 49°19' W 123°08'0 0.0
2014-Nov-07 13:31N 49°19' W 123°08'0 0.0
2014-Nov-07 12:31N 49°19' W 123°08'0 0.0
2014-Nov-07 11:31N 49°19' W 123°08'0 0.0
2014-Nov-07 10:31N 49°19' W 123°08'0 0.0
2014-Nov-07 09:31N 49°19' W 123°08'0 0.0
2014-Nov-07 08:31N 49°19' W 123°08'0 0.0
2014-Nov-07 07:31N 49°19' W 123°08'0 0.0
2014-Nov-07 06:31N 49°19' W 123°08'0 0.0
2014-Nov-07 05:31N 49°19' W 123°08'0 0.0
2014-Nov-07 04:31N 49°19' W 123°08'0 0.0
2014-Nov-07 03:31N 49°19' W 123°08'0 0.0
2014-Nov-07 02:31N 49°19' W 123°08'0 0.0
2014-Nov-07 01:34N 49°19' W 123°08'0 0.0
2014-Nov-07 00:31N 49°19' W 123°08'0 0.0
2014-Nov-06 23:31N 49°19' W 123°08'0 0.0
2014-Nov-06 22:31N 49°19' W 123°08'0 0.0
2014-Nov-06 21:31N 49°19' W 123°08'0 0.0
2014-Nov-06 20:34N 49°19' W 123°08'0 0.0
2014-Nov-06 19:34N 49°19' W 123°08'0 0.0
2014-Nov-06 18:31N 49°19' W 123°08'0 0.0
2014-Nov-06 17:34N 49°19' W 123°08'0 0.0
2014-Nov-06 16:31N 49°19' W 123°08'0 0.0
2014-Nov-06 15:34N 49°19' W 123°08'0 0.0
2014-Nov-06 14:31N 49°19' W 123°08'1 0.7
2014-Nov-06 13:31N 49°18' W 123°07'1 1.3
2014-Nov-06 12:31N 49°18' W 123°05'0 0.0
2014-Nov-06 11:31N 49°18' W 123°05'0 0.0
2014-Nov-06 10:31N 49°18' W 123°05'0 0.0
2014-Nov-06 09:31N 49°18' W 123°05'0 0.1
2014-Nov-06 08:33N 49°18' W 123°05'1 1.3
2014-Nov-06 07:33N 49°18' W 123°07'4 3.7
2014-Nov-06 06:34N 49°19' W 123°12'1 1.3
2014-Nov-06 05:33N 49°20' W 123°14'0 0.0
2014-Nov-06 04:33N 49°20' W 123°14'0 0.0
2014-Nov-06 03:30N 49°20' W 123°14'0 0.1
2014-Nov-06 02:33N 49°20' W 123°14'0 0.0
2014-Nov-06 01:33N 49°20' W 123°14'0 0.0
2014-Nov-06 00:33N 49°20' W 123°14'0 0.0
2014-Nov-05 23:33N 49°20' W 123°14'0 0.0
2014-Nov-05 22:33N 49°20' W 123°14'0 0.1
2014-Nov-05 21:33N 49°20' W 123°14'0 0.1
2014-Nov-05 20:33N 49°20' W 123°14'0 0.0
2014-Nov-05 19:33N 49°20' W 123°14'0 0.1
2014-Nov-05 18:33N 49°20' W 123°14'0 0.0
2014-Nov-05 17:33N 49°20' W 123°14'0 0.1
2014-Nov-05 16:33N 49°20' W 123°14'0 0.1
2014-Nov-05 15:33N 49°20' W 123°14'0 0.0
2014-Nov-05 14:33N 49°20' W 123°14'0 0.0
2014-Nov-05 13:33N 49°20' W 123°14'0 0.0
2014-Nov-05 12:33N 49°20' W 123°14'0 0.0
2014-Nov-05 11:33N 49°20' W 123°14'0 0.0
2014-Nov-05 10:33N 49°20' W 123°14'0 0.0
2014-Nov-05 09:33N 49°20' W 123°14'0 0.0
2014-Nov-05 08:33N 49°20' W 123°14'0 0.1
2014-Nov-05 07:33N 49°20' W 123°14'0 0.0
2014-Nov-05 06:33N 49°20' W 123°14'0 0.0
2014-Nov-05 05:33N 49°20' W 123°14'0 0.0
2014-Nov-05 04:33N 49°20' W 123°14'0 0.1
2014-Nov-05 03:33N 49°20' W 123°14'0 0.0
2014-Nov-05 02:30N 49°20' W 123°14'0 0.0
2014-Nov-05 01:33N 49°20' W 123°14'0 0.0
2014-Nov-05 00:33N 49°20' W 123°14'0 0.1
2014-Nov-04 23:33N 49°20' W 123°14'0 0.0
2014-Nov-04 22:33N 49°20' W 123°14'0 0.1
2014-Nov-04 21:33N 49°20' W 123°14'0 0.1
2014-Nov-04 20:33N 49°20' W 123°14'0 0.1
2014-Nov-04 19:33N 49°20' W 123°14'0 0.0
2014-Nov-04 18:33N 49°20' W 123°14'0 0.0
2014-Nov-04 17:33N 49°20' W 123°14'0 0.0
2014-Nov-04 16:33N 49°20' W 123°14'0 0.0
2014-Nov-04 15:33N 49°20' W 123°14'0 0.0
2014-Nov-04 14:33N 49°20' W 123°14'0 0.0
2014-Nov-04 13:33N 49°20' W 123°14'0 0.0
2014-Nov-04 12:30N 49°20' W 123°14'0 0.0
2014-Nov-04 11:33N 49°20' W 123°14'0 0.1
2014-Nov-04 10:33N 49°20' W 123°14'0 0.0
2014-Nov-04 09:33N 49°20' W 123°14'0 0.0
2014-Nov-04 08:33N 49°20' W 123°14'0 0.0
2014-Nov-04 07:30N 49°20' W 123°14'0 0.0
2014-Nov-04 06:33N 49°20' W 123°14'0 0.0
2014-Nov-04 05:33N 49°20' W 123°14'0 0.0
2014-Nov-04 04:33N 49°20' W 123°14'0 0.0
2014-Nov-04 03:33N 49°20' W 123°14'0 0.0
2014-Nov-04 02:33N 49°20' W 123°14'0 0.0
2014-Nov-04 01:33N 49°20' W 123°14'0 0.0
2014-Nov-04 00:33N 49°20' W 123°14'0 0.0
2014-Nov-03 23:33N 49°20' W 123°14'0 0.0
2014-Nov-03 22:30N 49°20' W 123°14'0 0.0
2014-Nov-03 21:33N 49°20' W 123°14'0 0.1
2014-Nov-03 20:33N 49°20' W 123°14'0 0.0
2014-Nov-03 19:33N 49°20' W 123°14'0 0.0
2014-Nov-03 19:09N 49°20' W 123°14'0 0.1
2014-Nov-03 18:33N 49°20' W 123°14'0 0.1
2014-Nov-03 18:12N 49°20' W 123°14'0 0.1
2014-Nov-03 17:48N 49°20' W 123°14'0 0.2
2014-Nov-03 17:33N 49°20' W 123°14'0 0.0
2014-Nov-03 16:33N 49°20' W 123°14'0 0.0
2014-Nov-03 14:33N 49°20' W 123°14'0 0.0
2014-Nov-03 13:33N 49°20' W 123°14'0 0.0
2014-Nov-03 12:33N 49°20' W 123°14'0 0.1
2014-Nov-03 11:33N 49°20' W 123°14'0 0.0
2014-Nov-03 10:33N 49°20' W 123°14'0 0.0
2014-Nov-03 09:33N 49°20' W 123°14'0 0.1
2014-Nov-03 08:33N 49°20' W 123°14'0 0.0
2014-Nov-03 07:33N 49°20' W 123°14'0 0.0
2014-Nov-03 06:33N 49°20' W 123°14'0 0.1
2014-Nov-03 05:33N 49°20' W 123°14'0 0.1
2014-Nov-03 04:33N 49°20' W 123°14'0 0.0
2014-Nov-03 03:33N 49°20' W 123°14'0 0.0
2014-Nov-03 02:33N 49°20' W 123°14'0 0.0
2014-Nov-03 01:33N 49°20' W 123°14'0 0.0
2014-Nov-03 00:33N 49°20' W 123°14'0 0.0
2014-Nov-02 23:33N 49°20' W 123°14'0 0.1
2014-Nov-02 22:33N 49°20' W 123°14'0 0.0
2014-Nov-02 21:33N 49°20' W 123°14'0 0.0
2014-Nov-02 20:33N 49°20' W 123°14'0 0.0
2014-Nov-02 19:33N 49°20' W 123°14'0 0.0
2014-Nov-02 18:33N 49°20' W 123°14'0 0.0
2014-Nov-02 17:33N 49°20' W 123°14'0 0.0
2014-Nov-02 16:33N 49°20' W 123°14'0 0.0
2014-Nov-02 15:33N 49°20' W 123°14'0 0.0
2014-Nov-02 14:33N 49°20' W 123°14'0 0.0
2014-Nov-02 13:33N 49°20' W 123°14'0 0.0
2014-Nov-02 12:33N 49°20' W 123°14'0 0.0
2014-Nov-02 11:33N 49°20' W 123°14'0 0.0
2014-Nov-02 10:33N 49°20' W 123°14'0 0.0
2014-Nov-02 09:33N 49°20' W 123°14'0 0.0
2014-Nov-02 08:33N 49°20' W 123°14'0 0.0
2014-Nov-02 07:33N 49°20' W 123°14'0 0.0
2014-Nov-02 06:33N 49°20' W 123°14'0 0.1
2014-Nov-02 05:33N 49°20' W 123°14'0 0.0
2014-Nov-02 04:33N 49°20' W 123°14'0 0.0
2014-Nov-02 03:33N 49°20' W 123°14'0 0.1
2014-Nov-02 02:33N 49°20' W 123°14'0 0.0
2014-Nov-02 01:33N 49°20' W 123°14'0 0.1
2014-Nov-02 00:33N 49°20' W 123°14'0 0.1
2014-Nov-01 23:33N 49°20' W 123°14'0 0.1
2014-Nov-01 22:33N 49°20' W 123°14'0 0.1
2014-Nov-01 21:33N 49°20' W 123°14'0 0.0
2014-Nov-01 20:33N 49°20' W 123°14'0 0.1
2014-Nov-01 19:33N 49°20' W 123°14'0 0.0
2014-Nov-01 18:30N 49°20' W 123°14'0 0.0
2014-Nov-01 17:33N 49°20' W 123°14'0 0.0
2014-Nov-01 16:33N 49°20' W 123°14'0 0.0
2014-Nov-01 15:33N 49°20' W 123°14'0 0.0
2014-Nov-01 14:33N 49°20' W 123°14'0 0.0
2014-Nov-01 13:33N 49°20' W 123°14'0 0.0
2014-Nov-01 12:33N 49°20' W 123°14'0 0.0
2014-Nov-01 11:33N 49°20' W 123°14'0 0.0
2014-Nov-01 10:33N 49°20' W 123°14'0 0.0
2014-Nov-01 09:33N 49°20' W 123°14'0 0.1
2014-Nov-01 08:33N 49°20' W 123°14'0 0.0
2014-Nov-01 07:30N 49°20' W 123°14'0 0.1
2014-Nov-01 06:33N 49°20' W 123°14'0 0.1
2014-Nov-01 05:32N 49°20' W 123°14'0 0.1
2014-Nov-01 04:32N 49°20' W 123°14'0 0.1
2014-Nov-01 03:33N 49°20' W 123°14'0 0.0
2014-Nov-01 02:33N 49°20' W 123°14'0 0.0
2014-Nov-01 01:33N 49°20' W 123°14'0 0.0
2014-Nov-01 00:32N 49°20' W 123°14'0 0.0
2014-Oct-31 23:32N 49°20' W 123°14'0 0.0
2014-Oct-31 22:32N 49°20' W 123°14'0 0.0
2014-Oct-31 21:32N 49°20' W 123°14'0 0.1
2014-Oct-31 20:32N 49°20' W 123°14'0 0.0
2014-Oct-31 19:32N 49°20' W 123°14'0 0.1
2014-Oct-31 18:33N 49°20' W 123°14'0 0.0
2014-Oct-31 17:33N 49°20' W 123°14'0 0.0
2014-Oct-31 16:32N 49°20' W 123°14'0 0.0
2014-Oct-31 15:32N 49°20' W 123°14'0 0.1
2014-Oct-31 14:32N 49°20' W 123°14'0 0.1
2014-Oct-31 13:32N 49°20' W 123°14'0 0.0
2014-Oct-31 12:32N 49°20' W 123°14'0 0.0
2014-Oct-31 11:32N 49°20' W 123°14'0 0.0
2014-Oct-31 10:32N 49°20' W 123°14'0 0.0
2014-Oct-31 09:32N 49°20' W 123°14'0 0.1
2014-Oct-31 08:32N 49°20' W 123°14'0 0.2
2014-Oct-31 07:32N 49°20' W 123°14'0 0.1
2014-Oct-31 06:32N 49°20' W 123°14'0 0.1
2014-Oct-31 05:29N 49°20' W 123°14'0 0.2
2014-Oct-31 04:32N 49°20' W 123°14'0 0.1
2014-Oct-31 03:32N 49°20' W 123°14'0 0.0
2014-Oct-31 02:32N 49°20' W 123°14'0 0.1
2014-Oct-31 01:32N 49°20' W 123°14'0 0.0
2014-Oct-31 00:32N 49°20' W 123°14'0 0.0
2014-Oct-30 23:32N 49°20' W 123°14'0 0.0
2014-Oct-30 22:32N 49°20' W 123°14'0 0.0
2014-Oct-30 21:32N 49°20' W 123°14'0 0.1
2014-Oct-30 20:32N 49°20' W 123°14'0 0.2
2014-Oct-30 19:32N 49°20' W 123°14'0 0.1
2014-Oct-30 18:32N 49°20' W 123°14'0 0.1
2014-Oct-30 17:32N 49°20' W 123°14'0 0.0
2014-Oct-30 16:32N 49°20' W 123°14'0 0.1
2014-Oct-30 15:32N 49°20' W 123°14'0 0.0
2014-Oct-30 14:32N 49°20' W 123°14'0 0.1
2014-Oct-30 13:32N 49°20' W 123°14'0 0.1
2014-Oct-30 12:32N 49°20' W 123°14'0 0.1
2014-Oct-30 11:32N 49°20' W 123°14'0 0.0
2014-Oct-30 10:32N 49°20' W 123°14'0 0.0
2014-Oct-30 09:32N 49°20' W 123°14'0 0.0
2014-Oct-30 08:32N 49°20' W 123°14'0 0.1
2014-Oct-30 07:32N 49°20' W 123°14'0 0.1
2014-Oct-30 06:29N 49°20' W 123°14'0 0.1
2014-Oct-30 05:32N 49°20' W 123°14'0 0.0
2014-Oct-30 04:29N 49°20' W 123°14'0 0.0
2014-Oct-30 03:32N 49°20' W 123°14'0 0.2
2014-Oct-30 02:32N 49°20' W 123°14'0 0.0
2014-Oct-30 01:32N 49°20' W 123°14'0 0.0
2014-Oct-30 00:32N 49°20' W 123°14'0 0.0
2014-Oct-29 23:32N 49°20' W 123°14'0 0.0
2014-Oct-29 22:32N 49°20' W 123°14'0 0.1
2014-Oct-29 21:32N 49°20' W 123°14'0 0.0
2014-Oct-29 20:29N 49°20' W 123°14'0 0.1
2014-Oct-29 19:32N 49°20' W 123°14'0 0.0
2014-Oct-29 18:32N 49°20' W 123°14'0 0.0
2014-Oct-29 17:32N 49°20' W 123°14'0 0.0
2014-Oct-29 16:29N 49°20' W 123°14'0 0.1
2014-Oct-29 15:32N 49°20' W 123°14'  
Track history (hours):
 
Tides and Currents Weather Stations Pressure Air Temp Water Temp Dewpoint Dewpoint Depression Visibility Wind Speed Wind Dir Waves Ship Positions

New Creation

Last reported at 2014-Nov-08 15:22 UTC. Time now 2014-Nov-23 12:26 UTC.
Position N 49°02' W 126°47'.
Warning: this ship's position is 14 days out of date.

Length 176 m; draft 10.1 m.

Type: Cargo ship. MMSI: 353507000.

Date/timePositionNaut miles runAvg speedWind from/ knotsBaromVisibWave heightAir tempDewpointWater temp
2014-Nov-08 15:22N 49°02' W 126°47'1112.8
2014-Nov-08 14:30N 48°57' W 126°32'1213.1
2014-Nov-08 13:34N 48°53' W 126°15'1313.2
2014-Nov-08 12:34N 48°47' W 125°57'1312.9
2014-Nov-08 11:34N 48°41' W 125°39'1313.0
2014-Nov-08 10:33N 48°36' W 125°21'1312.9
2014-Nov-08 09:33N 48°31' W 125°03'4012.8
2014-Nov-08 06:28N 48°20' W 124°05'1314.1
2014-Nov-08 05:33N 48°17' W 123°47'1413.6
2014-Nov-08 04:33N 48°20' W 123°27'1212.0
2014-Nov-08 03:33N 48°26' W 123°12'1615.5
2014-Nov-08 02:34N 48°42' W 123°15'1212.0
2014-Nov-08 01:33N 48°50' W 123°02'1313.3
2014-Nov-08 00:33N 48°59' W 123°17'1212.0
2014-Nov-07 23:33N 49°11' W 123°22'1111.1
2014-Nov-07 22:34N 49°19' W 123°10'2 1.7
2014-Nov-07 21:31N 49°19' W 123°08'0 0.0
2014-Nov-07 20:31N 49°19' W 123°08'0 0.0
2014-Nov-07 19:31N 49°19' W 123°08'0 0.0
2014-Nov-07 18:31N 49°19' W 123°08'0 0.0
2014-Nov-07 17:31N 49°19' W 123°08'0 0.0
2014-Nov-07 16:31N 49°19' W 123°08'0 0.0
2014-Nov-07 15:31N 49°19' W 123°08'0 0.0
2014-Nov-07 14:31N 49°19' W 123°08'0 0.0
2014-Nov-07 13:31N 49°19' W 123°08'0 0.0
2014-Nov-07 12:31N 49°19' W 123°08'0 0.0
2014-Nov-07 11:31N 49°19' W 123°08'0 0.0
2014-Nov-07 10:31N 49°19' W 123°08'0 0.0
2014-Nov-07 09:31N 49°19' W 123°08'0 0.0
2014-Nov-07 08:31N 49°19' W 123°08'0 0.0
2014-Nov-07 07:31N 49°19' W 123°08'0 0.0
2014-Nov-07 06:31N 49°19' W 123°08'0 0.0
2014-Nov-07 05:31N 49°19' W 123°08'0 0.0
2014-Nov-07 04:31N 49°19' W 123°08'0 0.0
2014-Nov-07 03:31N 49°19' W 123°08'0 0.0
2014-Nov-07 02:31N 49°19' W 123°08'0 0.0
2014-Nov-07 01:34N 49°19' W 123°08'0 0.0
2014-Nov-07 00:31N 49°19' W 123°08'0 0.0
2014-Nov-06 23:31N 49°19' W 123°08'0 0.0
2014-Nov-06 22:31N 49°19' W 123°08'0 0.0
2014-Nov-06 21:31N 49°19' W 123°08'0 0.0
2014-Nov-06 20:34N 49°19' W 123°08'0 0.0
2014-Nov-06 19:34N 49°19' W 123°08'0 0.0
2014-Nov-06 18:31N 49°19' W 123°08'0 0.0
2014-Nov-06 17:34N 49°19' W 123°08'0 0.0
2014-Nov-06 16:31N 49°19' W 123°08'0 0.0
2014-Nov-06 15:34N 49°19' W 123°08'0 0.0
2014-Nov-06 14:31N 49°19' W 123°08'1 0.7
2014-Nov-06 13:31N 49°18' W 123°07'1 1.3
2014-Nov-06 12:31N 49°18' W 123°05'0 0.0
2014-Nov-06 11:31N 49°18' W 123°05'0 0.0
2014-Nov-06 10:31N 49°18' W 123°05'0 0.0
2014-Nov-06 09:31N 49°18' W 123°05'0 0.1
2014-Nov-06 08:33N 49°18' W 123°05'1 1.3
2014-Nov-06 07:33N 49°18' W 123°07'4 3.7
2014-Nov-06 06:34N 49°19' W 123°12'1 1.3
2014-Nov-06 05:33N 49°20' W 123°14'0 0.0
2014-Nov-06 04:33N 49°20' W 123°14'0 0.0
2014-Nov-06 03:30N 49°20' W 123°14'0 0.1
2014-Nov-06 02:33N 49°20' W 123°14'0 0.0
2014-Nov-06 01:33N 49°20' W 123°14'0 0.0
2014-Nov-06 00:33N 49°20' W 123°14'0 0.0
2014-Nov-05 23:33N 49°20' W 123°14'0 0.0
2014-Nov-05 22:33N 49°20' W 123°14'0 0.1
2014-Nov-05 21:33N 49°20' W 123°14'0 0.1
2014-Nov-05 20:33N 49°20' W 123°14'0 0.0
2014-Nov-05 19:33N 49°20' W 123°14'0 0.1
2014-Nov-05 18:33N 49°20' W 123°14'0 0.0
2014-Nov-05 17:33N 49°20' W 123°14'0 0.1
2014-Nov-05 16:33N 49°20' W 123°14'0 0.1
2014-Nov-05 15:33N 49°20' W 123°14'0 0.0
2014-Nov-05 14:33N 49°20' W 123°14'0 0.0
2014-Nov-05 13:33N 49°20' W 123°14'0 0.0
2014-Nov-05 12:33N 49°20' W 123°14'0 0.0
2014-Nov-05 11:33N 49°20' W 123°14'0 0.0
2014-Nov-05 10:33N 49°20' W 123°14'0 0.0
2014-Nov-05 09:33N 49°20' W 123°14'0 0.0
2014-Nov-05 08:33N 49°20' W 123°14'0 0.1
2014-Nov-05 07:33N 49°20' W 123°14'0 0.0
2014-Nov-05 06:33N 49°20' W 123°14'0 0.0
2014-Nov-05 05:33N 49°20' W 123°14'0 0.0
2014-Nov-05 04:33N 49°20' W 123°14'0 0.1
2014-Nov-05 03:33N 49°20' W 123°14'0 0.0
2014-Nov-05 02:30N 49°20' W 123°14'0 0.0
2014-Nov-05 01:33N 49°20' W 123°14'0 0.0
2014-Nov-05 00:33N 49°20' W 123°14'0 0.1
2014-Nov-04 23:33N 49°20' W 123°14'0 0.0
2014-Nov-04 22:33N 49°20' W 123°14'0 0.1
2014-Nov-04 21:33N 49°20' W 123°14'0 0.1
2014-Nov-04 20:33N 49°20' W 123°14'0 0.1
2014-Nov-04 19:33N 49°20' W 123°14'0 0.0
2014-Nov-04 18:33N 49°20' W 123°14'0 0.0
2014-Nov-04 17:33N 49°20' W 123°14'0 0.0
2014-Nov-04 16:33N 49°20' W 123°14'0 0.0
2014-Nov-04 15:33N 49°20' W 123°14'0 0.0
2014-Nov-04 14:33N 49°20' W 123°14'0 0.0
2014-Nov-04 13:33N 49°20' W 123°14'0 0.0
2014-Nov-04 12:30N 49°20' W 123°14'0 0.0
2014-Nov-04 11:33N 49°20' W 123°14'0 0.1
2014-Nov-04 10:33N 49°20' W 123°14'0 0.0
2014-Nov-04 09:33N 49°20' W 123°14'0 0.0
2014-Nov-04 08:33N 49°20' W 123°14'0 0.0
2014-Nov-04 07:30N 49°20' W 123°14'0 0.0
2014-Nov-04 06:33N 49°20' W 123°14'0 0.0
2014-Nov-04 05:33N 49°20' W 123°14'0 0.0
2014-Nov-04 04:33N 49°20' W 123°14'0 0.0
2014-Nov-04 03:33N 49°20' W 123°14'0 0.0
2014-Nov-04 02:33N 49°20' W 123°14'0 0.0
2014-Nov-04 01:33N 49°20' W 123°14'0 0.0
2014-Nov-04 00:33N 49°20' W 123°14'0 0.0
2014-Nov-03 23:33N 49°20' W 123°14'0 0.0
2014-Nov-03 22:30N 49°20' W 123°14'0 0.0
2014-Nov-03 21:33N 49°20' W 123°14'0 0.1
2014-Nov-03 20:33N 49°20' W 123°14'0 0.0
2014-Nov-03 19:33N 49°20' W 123°14'0 0.0
2014-Nov-03 19:09N 49°20' W 123°14'0 0.1
2014-Nov-03 18:33N 49°20' W 123°14'0 0.1
2014-Nov-03 18:12N 49°20' W 123°14'0 0.1
2014-Nov-03 17:48N 49°20' W 123°14'0 0.2
2014-Nov-03 17:33N 49°20' W 123°14'0 0.0
2014-Nov-03 16:33N 49°20' W 123°14'0 0.0
2014-Nov-03 14:33N 49°20' W 123°14'0 0.0
2014-Nov-03 13:33N 49°20' W 123°14'0 0.0
2014-Nov-03 12:33N 49°20' W 123°14'0 0.1
2014-Nov-03 11:33N 49°20' W 123°14'0 0.0
2014-Nov-03 10:33N 49°20' W 123°14'0 0.0
2014-Nov-03 09:33N 49°20' W 123°14'0 0.1
2014-Nov-03 08:33N 49°20' W 123°14'0 0.0
2014-Nov-03 07:33N 49°20' W 123°14'0 0.0
2014-Nov-03 06:33N 49°20' W 123°14'0 0.1
2014-Nov-03 05:33N 49°20' W 123°14'0 0.1
2014-Nov-03 04:33N 49°20' W 123°14'0 0.0
2014-Nov-03 03:33N 49°20' W 123°14'0 0.0
2014-Nov-03 02:33N 49°20' W 123°14'0 0.0
2014-Nov-03 01:33N 49°20' W 123°14'0 0.0
2014-Nov-03 00:33N 49°20' W 123°14'0 0.0
2014-Nov-02 23:33N 49°20' W 123°14'0 0.1
2014-Nov-02 22:33N 49°20' W 123°14'0 0.0
2014-Nov-02 21:33N 49°20' W 123°14'0 0.0
2014-Nov-02 20:33N 49°20' W 123°14'0 0.0
2014-Nov-02 19:33N 49°20' W 123°14'0 0.0
2014-Nov-02 18:33N 49°20' W 123°14'0 0.0
2014-Nov-02 17:33N 49°20' W 123°14'0 0.0
2014-Nov-02 16:33N 49°20' W 123°14'0 0.0
2014-Nov-02 15:33N 49°20' W 123°14'0 0.0
2014-Nov-02 14:33N 49°20' W 123°14'0 0.0
2014-Nov-02 13:33N 49°20' W 123°14'0 0.0
2014-Nov-02 12:33N 49°20' W 123°14'0 0.0
2014-Nov-02 11:33N 49°20' W 123°14'0 0.0
2014-Nov-02 10:33N 49°20' W 123°14'0 0.0
2014-Nov-02 09:33N 49°20' W 123°14'0 0.0
2014-Nov-02 08:33N 49°20' W 123°14'0 0.0
2014-Nov-02 07:33N 49°20' W 123°14'0 0.0
2014-Nov-02 06:33N 49°20' W 123°14'0 0.1
2014-Nov-02 05:33N 49°20' W 123°14'0 0.0
2014-Nov-02 04:33N 49°20' W 123°14'0 0.0
2014-Nov-02 03:33N 49°20' W 123°14'0 0.1
2014-Nov-02 02:33N 49°20' W 123°14'0 0.0
2014-Nov-02 01:33N 49°20' W 123°14'0 0.1
2014-Nov-02 00:33N 49°20' W 123°14'0 0.1
2014-Nov-01 23:33N 49°20' W 123°14'0 0.1
2014-Nov-01 22:33N 49°20' W 123°14'0 0.1
2014-Nov-01 21:33N 49°20' W 123°14'0 0.0
2014-Nov-01 20:33N 49°20' W 123°14'0 0.1
2014-Nov-01 19:33N 49°20' W 123°14'0 0.0
2014-Nov-01 18:30N 49°20' W 123°14'0 0.0
2014-Nov-01 17:33N 49°20' W 123°14'0 0.0
2014-Nov-01 16:33N 49°20' W 123°14'0 0.0
2014-Nov-01 15:33N 49°20' W 123°14'0 0.0
2014-Nov-01 14:33N 49°20' W 123°14'0 0.0
2014-Nov-01 13:33N 49°20' W 123°14'0 0.0
2014-Nov-01 12:33N 49°20' W 123°14'0 0.0
2014-Nov-01 11:33N 49°20' W 123°14'0 0.0
2014-Nov-01 10:33N 49°20' W 123°14'0 0.0
2014-Nov-01 09:33N 49°20' W 123°14'0 0.1
2014-Nov-01 08:33N 49°20' W 123°14'0 0.0
2014-Nov-01 07:30N 49°20' W 123°14'0 0.1
2014-Nov-01 06:33N 49°20' W 123°14'0 0.1
2014-Nov-01 05:32N 49°20' W 123°14'0 0.1
2014-Nov-01 04:32N 49°20' W 123°14'0 0.1
2014-Nov-01 03:33N 49°20' W 123°14'0 0.0
2014-Nov-01 02:33N 49°20' W 123°14'0 0.0
2014-Nov-01 01:33N 49°20' W 123°14'0 0.0
2014-Nov-01 00:32N 49°20' W 123°14'0 0.0
2014-Oct-31 23:32N 49°20' W 123°14'0 0.0
2014-Oct-31 22:32N 49°20' W 123°14'0 0.0
2014-Oct-31 21:32N 49°20' W 123°14'0 0.1
2014-Oct-31 20:32N 49°20' W 123°14'0 0.0
2014-Oct-31 19:32N 49°20' W 123°14'0 0.1
2014-Oct-31 18:33N 49°20' W 123°14'0 0.0
2014-Oct-31 17:33N 49°20' W 123°14'0 0.0
2014-Oct-31 16:32N 49°20' W 123°14'0 0.0
2014-Oct-31 15:32N 49°20' W 123°14'0 0.1
2014-Oct-31 14:32N 49°20' W 123°14'0 0.1
2014-Oct-31 13:32N 49°20' W 123°14'0 0.0
2014-Oct-31 12:32N 49°20' W 123°14'0 0.0
2014-Oct-31 11:32N 49°20' W 123°14'0 0.0
2014-Oct-31 10:32N 49°20' W 123°14'0 0.0
2014-Oct-31 09:32N 49°20' W 123°14'0 0.1
2014-Oct-31 08:32N 49°20' W 123°14'0 0.2
2014-Oct-31 07:32N 49°20' W 123°14'0 0.1
2014-Oct-31 06:32N 49°20' W 123°14'0 0.1
2014-Oct-31 05:29N 49°20' W 123°14'0 0.2
2014-Oct-31 04:32N 49°20' W 123°14'0 0.1
2014-Oct-31 03:32N 49°20' W 123°14'0 0.0
2014-Oct-31 02:32N 49°20' W 123°14'0 0.1
2014-Oct-31 01:32N 49°20' W 123°14'0 0.0
2014-Oct-31 00:32N 49°20' W 123°14'0 0.0
2014-Oct-30 23:32N 49°20' W 123°14'0 0.0
2014-Oct-30 22:32N 49°20' W 123°14'0 0.0
2014-Oct-30 21:32N 49°20' W 123°14'0 0.1
2014-Oct-30 20:32N 49°20' W 123°14'0 0.2
2014-Oct-30 19:32N 49°20' W 123°14'0 0.1
2014-Oct-30 18:32N 49°20' W 123°14'0 0.1
2014-Oct-30 17:32N 49°20' W 123°14'0 0.0
2014-Oct-30 16:32N 49°20' W 123°14'0 0.1
2014-Oct-30 15:32N 49°20' W 123°14'0 0.0
2014-Oct-30 14:32N 49°20' W 123°14'0 0.1
2014-Oct-30 13:32N 49°20' W 123°14'0 0.1
2014-Oct-30 12:32N 49°20' W 123°14'0 0.1
2014-Oct-30 11:32N 49°20' W 123°14'0 0.0
2014-Oct-30 10:32N 49°20' W 123°14'0 0.0
2014-Oct-30 09:32N 49°20' W 123°14'0 0.0
2014-Oct-30 08:32N 49°20' W 123°14'0 0.1
2014-Oct-30 07:32N 49°20' W 123°14'0 0.1
2014-Oct-30 06:29N 49°20' W 123°14'0 0.1
2014-Oct-30 05:32N 49°20' W 123°14'0 0.0
2014-Oct-30 04:29N 49°20' W 123°14'0 0.0
2014-Oct-30 03:32N 49°20' W 123°14'0 0.2
2014-Oct-30 02:32N 49°20' W 123°14'0 0.0
2014-Oct-30 01:32N 49°20' W 123°14'0 0.0
2014-Oct-30 00:32N 49°20' W 123°14'0 0.0
2014-Oct-29 23:32N 49°20' W 123°14'0 0.0
2014-Oct-29 22:32N 49°20' W 123°14'0 0.1
2014-Oct-29 21:32N 49°20' W 123°14'0 0.0
2014-Oct-29 20:29N 49°20' W 123°14'0 0.1
2014-Oct-29 19:32N 49°20' W 123°14'0 0.0
2014-Oct-29 18:32N 49°20' W 123°14'0 0.0
2014-Oct-29 17:32N 49°20' W 123°14'0 0.0
2014-Oct-29 16:29N 49°20' W 123°14'0 0.1
2014-Oct-29 15:32N 49°20' W 123°14'  

Dump ship's entire track history